Αναφορές Αεροδρομίων

 

KSJC - San Jose, California, USA
Distance from station: ΒΑ 14km
Ενημερώθηκε: 22/09/2019 10:53
Αίθριος
Αίθριος
 Ανεμος από ΝΑ
Ανεμος: ΝΑ 6 km/h
Θερμοκρασία: 19°C
Σημείο Δρόσου: 11°C
Υγρασία: 60%
Βαρόμετρο: 1012.9 hPa
Clouds: Αίθριος
Visibility: 16 km
2019/09/22 07:53 KSJC 220753Z AUTO 14003KT 10SM CLR 19/11 A2991 RMK AO2 SLP127 T01890111 403060144
KNUQ - Moffett Nas/Mtn, California, USA
Distance from station: Β 14km
Ενημερώθηκε: 22/09/2019 10:56

 
Βαρόμετρο: 1012.9 hPa
2019/09/22 07:56 KNUQ 220756Z A2991 RMK AO2 SLP132 PWINO $
 
KPAO - Palo Alto, California, USA
Distance from station: ΒΒΔ 23km
Ενημερώθηκε: 22/09/2019 06:47
NOT Current
Αίθριος
Αίθριος
 Ανεμος από Β
Ανεμος: Β 11 km/h
Θερμοκρασία: 21°C
Σημείο Δρόσου: 14°C
Υγρασία: 64%
Βαρόμετρο: 1012.9 hPa
Clouds: Αίθριος
Visibility: 16 km
2019/09/22 03:47 KPAO 220347Z 35006KT 10SM SKC 21/14 A2991 RMK LAST
KRHV - San Jose/Reid, California, USA
Distance from station: ΑΒΑ 19km
Ενημερώθηκε: 22/09/2019 07:52
NOT Current
Αίθριος
Αίθριος
 Ανεμος από calm
Ανεμος: Απνοια
Θερμοκρασία: 22°C
Σημείο Δρόσου: 9°C
Υγρασία: 44%
Βαρόμετρο: 1013.5 hPa
Clouds: Αίθριος
Visibility: 16 km
2019/09/22 04:52 KRHV 220452Z 00000KT 10SM SKC 22/09 A2993 RMK LAST
 
KOAK - Oakland, California, USA
Distance from station: ΒΒΔ 50km
Ενημερώθηκε: 22/09/2019 10:53
Αίθριος
Αίθριος
 Ανεμος από calm
Ανεμος: Απνοια
Θερμοκρασία: 17°C
Σημείο Δρόσου: 14°C
Υγρασία: 83%
Βαρόμετρο: 1013.2 hPa
Clouds: Αίθριος
Visibility: 16 km
2019/09/22 07:53 KOAK 220753Z 00000KT 10SM CLR 17/14 A2992 RMK AO2 SLP129 T01670139 402940139
KSQL - San Carlos Airpo, California, USA
Distance from station: ΒΔ 34km
Ενημερώθηκε: 22/09/2019 06:58
NOT Current
Αίθριος
Αίθριος
 Ανεμος από ΒΔ
Ανεμος: ΒΔ 6 km/h
Θερμοκρασία: 23°C
Σημείο Δρόσου: 7°C
Υγρασία: 36%
Βαρόμετρο: 1013.2 hPa
Clouds: Αίθριος
Visibility: 16 km
2019/09/22 03:58 KSQL 220358Z 31003KT 10SM SKC 23/07 A2992 RMK LAST
 
KSFO - San Francisco, California, USA
Distance from station: ΒΔ 49km
Ενημερώθηκε: 22/09/2019 10:56
Αίθριος
Αίθριος
 Ανεμος από ΔΒΔ
Ανεμος: ΔΒΔ 13 km/h
Θερμοκρασία: 16°C
Σημείο Δρόσου: 12°C
Υγρασία: 77%
Βαρόμετρο: 1012.9 hPa
Clouds: Αίθριος
Visibility: 16 km
2019/09/22 07:56 KSFO 220756Z 30007KT 10SM CLR 16/12 A2991 RMK AO2 SLP127 T01610122 402940161
KE16 - San Martin, California, USA
Distance from station: ΑΝΑ 43km
Ενημερώθηκε: 22/09/2019 10:55
Αίθριος
Αίθριος
 Ανεμος από calm
Ανεμος: Απνοια
Θερμοκρασία: 17°C
Σημείο Δρόσου: 8°C
Υγρασία: 56%
Βαρόμετρο: 1013.9 hPa
Clouds: Αίθριος
Visibility: 16 km
2019/09/22 07:55 KE16 220755Z AUTO 00000KT 10SM CLR 17/08 A2994 RMK AO2
 
KWVI - Watsonville, California, USA
Distance from station: ΝΝΑ 44km
Ενημερώθηκε: 22/09/2019 10:53
Αίθριος
Αίθριος
 Ανεμος από calm
Ανεμος: Απνοια
Θερμοκρασία: 16°C
Σημείο Δρόσου: 11°C
Υγρασία: 72%
Βαρόμετρο: 1013.2 hPa
Clouds: Αίθριος
Visibility: 16 km
2019/09/22 07:53 KWVI 220753Z AUTO 00000KT 10SM CLR 16/11 A2992 RMK AO2 SLP128 T01560106 403170111 $
KHAF - Half Moon Bay, California, USA
Distance from station: ΔΒΔ 50km
Ενημερώθηκε: 22/09/2019 11:00
Συννεφιά
Συννεφιά
 Ανεμος από calm
Ανεμος: Απνοια
Θερμοκρασία: 11°C
Σημείο Δρόσου: 10°C
Υγρασία: 94%
Βαρόμετρο: 1013.5 hPa
Clouds: Συννεφιά
Visibility: 13 km
Cloud details: Συννεφιά 152 m
2019/09/22 08:00 KHAF 220800Z AUTO 00000KT 8SM OVC005 11/10 A2993 RMK AO2
 
KHWD - Hayward, California, USA
Distance from station: Β 44km
Ενημερώθηκε: 22/09/2019 10:54
Αίθριος
Αίθριος
 Ανεμος από ΒΑ
Ανεμος: ΒΑ 7 km/h
Θερμοκρασία: 17°C
Σημείο Δρόσου: 10°C
Υγρασία: 64%
Βαρόμετρο: 1012.9 hPa
Clouds: Αίθριος
Visibility: 16 km
2019/09/22 07:54 KHWD 220754Z AUTO 05004KT 10SM CLR 17/10 A2991 RMK AO2 SLP136 T01720100 403000144
KLVK - Livermore, California, USA
Distance from station: ΒΒΑ 51km
Ενημερώθηκε: 22/09/2019 10:53
Αίθριος
Αίθριος
 Ανεμος από Α
Ανεμος: Α 7 km/h
Θερμοκρασία: 15°C
Σημείο Δρόσου: 7°C
Υγρασία: 59%
Βαρόμετρο: 1012.9 hPa
Clouds: Αίθριος
Visibility: 16 km
2019/09/22 07:53 KLVK 220753Z AUTO 09004KT 10SM CLR 15/07 A2991 RMK AO2 SLP126 T01500072 403110111